sensor_id;sensor_type;location;lat;lon;timestamp;pressure;altitude;pressure_sealevel;temperature;humidity
85023;BME280;75348;43.126;-2.538;2024-02-14T00:00:26;100076.56;;;11.14;86.30
85023;BME280;75348;43.126;-2.538;2024-02-14T00:02:53;100090.16;;;11.29;88.14
85023;BME280;75348;43.126;-2.538;2024-02-14T00:05:20;100084.47;;;11.24;88.67
85023;BME280;75348;43.126;-2.538;2024-02-14T00:07:47;100087.56;;;11.19;87.79
85023;BME280;75348;43.126;-2.538;2024-02-14T00:10:14;100081.50;;;10.92;87.62
85023;BME280;75348;43.126;-2.538;2024-02-14T00:12:41;100080.59;;;11.01;88.69
85023;BME280;75348;43.126;-2.538;2024-02-14T00:15:09;100092.03;;;10.58;88.40
85023;BME280;75348;43.126;-2.538;2024-02-14T00:17:36;100091.66;;;10.43;89.19
85023;BME280;75348;43.126;-2.538;2024-02-14T00:20:03;100092.59;;;10.52;89.81
85023;BME280;75348;43.126;-2.538;2024-02-14T00:22:31;100096.22;;;10.60;89.99
85023;BME280;75348;43.126;-2.538;2024-02-14T00:24:58;100093.13;;;10.55;91.32
85023;BME280;75348;43.126;-2.538;2024-02-14T00:27:25;100093.06;;;10.11;89.70
85023;BME280;75348;43.126;-2.538;2024-02-14T00:29:53;100089.16;;;10.06;91.61
85023;BME280;75348;43.126;-2.538;2024-02-14T00:32:21;100094.19;;;10.09;90.82
85023;BME280;75348;43.126;-2.538;2024-02-14T00:34:49;100100.88;;;10.13;90.72
85023;BME280;75348;43.126;-2.538;2024-02-14T00:37:19;100102.22;;;10.17;91.66
85023;BME280;75348;43.126;-2.538;2024-02-14T00:39:46;100091.59;;;10.26;92.49
85023;BME280;75348;43.126;-2.538;2024-02-14T00:42:16;100097.22;;;10.14;90.27
85023;BME280;75348;43.126;-2.538;2024-02-14T00:44:43;100095.81;;;10.19;91.67
85023;BME280;75348;43.126;-2.538;2024-02-14T00:47:10;100088.47;;;10.04;92.17
85023;BME280;75348;43.126;-2.538;2024-02-14T00:49:37;100079.84;;;10.02;91.70
85023;BME280;75348;43.126;-2.538;2024-02-14T00:52:06;100084.31;;;9.82;92.39
85023;BME280;75348;43.126;-2.538;2024-02-14T00:54:33;100090.06;;;9.78;93.71
85023;BME280;75348;43.126;-2.538;2024-02-14T00:57:00;100089.88;;;9.89;92.85
85023;BME280;75348;43.126;-2.538;2024-02-14T00:59:27;100080.84;;;9.82;92.04
85023;BME280;75348;43.126;-2.538;2024-02-14T01:01:54;100081.13;;;9.79;92.80
85023;BME280;75348;43.126;-2.538;2024-02-14T01:04:21;100086.81;;;10.03;92.84
85023;BME280;75348;43.126;-2.538;2024-02-14T01:06:48;100075.13;;;9.86;91.17
85023;BME280;75348;43.126;-2.538;2024-02-14T01:09:16;100070.53;;;9.79;92.76
85023;BME280;75348;43.126;-2.538;2024-02-14T01:11:44;100081.63;;;10.11;93.77
85023;BME280;75348;43.126;-2.538;2024-02-14T01:14:11;100075.94;;;10.06;93.71
85023;BME280;75348;43.126;-2.538;2024-02-14T01:16:44;100080.81;;;10.01;92.33
85023;BME280;75348;43.126;-2.538;2024-02-14T01:19:11;100085.84;;;9.94;93.20
85023;BME280;75348;43.126;-2.538;2024-02-14T01:21:39;100082.63;;;9.91;91.87
85023;BME280;75348;43.126;-2.538;2024-02-14T01:24:06;100095.31;;;9.97;92.89
85023;BME280;75348;43.126;-2.538;2024-02-14T01:26:35;100079.16;;;9.81;93.21
85023;BME280;75348;43.126;-2.538;2024-02-14T01:29:03;100082.09;;;9.87;92.39
85023;BME280;75348;43.126;-2.538;2024-02-14T01:31:35;100075.22;;;10.13;94.03
85023;BME280;75348;43.126;-2.538;2024-02-14T01:34:02;100082.75;;;10.08;92.84
85023;BME280;75348;43.126;-2.538;2024-02-14T01:36:30;100085.38;;;10.18;92.77
85023;BME280;75348;43.126;-2.538;2024-02-14T01:38:57;100078.00;;;10.12;91.74
85023;BME280;75348;43.126;-2.538;2024-02-14T01:41:24;100065.97;;;10.17;92.49
85023;BME280;75348;43.126;-2.538;2024-02-14T01:43:51;100072.19;;;9.99;92.39
85023;BME280;75348;43.126;-2.538;2024-02-14T01:46:18;100073.44;;;9.85;91.85
85023;BME280;75348;43.126;-2.538;2024-02-14T01:48:46;100073.56;;;9.84;93.54
85023;BME280;75348;43.126;-2.538;2024-02-14T01:51:16;100080.97;;;9.80;93.58
85023;BME280;75348;43.126;-2.538;2024-02-14T01:53:46;100074.47;;;9.66;93.34
85023;BME280;75348;43.126;-2.538;2024-02-14T01:56:13;100073.22;;;9.60;93.50
85023;BME280;75348;43.126;-2.538;2024-02-14T01:58:41;100080.88;;;9.63;93.45
85023;BME280;75348;43.126;-2.538;2024-02-14T02:01:09;100082.09;;;9.87;91.97
85023;BME280;75348;43.126;-2.538;2024-02-14T02:03:38;100085.88;;;9.75;92.23
85023;BME280;75348;43.126;-2.538;2024-02-14T02:06:05;100080.56;;;9.75;93.35
85023;BME280;75348;43.126;-2.538;2024-02-14T02:08:33;100087.59;;;9.48;92.78
85023;BME280;75348;43.126;-2.538;2024-02-14T02:11:00;100079.22;;;9.53;93.81
85023;BME280;75348;43.126;-2.538;2024-02-14T02:13:27;100070.28;;;9.54;92.36
85023;BME280;75348;43.126;-2.538;2024-02-14T02:15:54;100072.81;;;9.55;93.67
85023;BME280;75348;43.126;-2.538;2024-02-14T02:18:21;100077.28;;;9.55;94.19
85023;BME280;75348;43.126;-2.538;2024-02-14T02:20:48;100074.72;;;9.81;94.62
85023;BME280;75348;43.126;-2.538;2024-02-14T02:23:16;100073.88;;;9.81;94.26
85023;BME280;75348;43.126;-2.538;2024-02-14T02:25:43;100081.41;;;9.76;94.12
85023;BME280;75348;43.126;-2.538;2024-02-14T02:28:10;100076.22;;;10.03;93.62
85023;BME280;75348;43.126;-2.538;2024-02-14T02:30:37;100074.44;;;9.94;94.81
85023;BME280;75348;43.126;-2.538;2024-02-14T02:33:05;100073.75;;;10.55;93.09
85023;BME280;75348;43.126;-2.538;2024-02-14T02:35:34;100071.34;;;10.61;93.50
85023;BME280;75348;43.126;-2.538;2024-02-14T02:38:01;100069.09;;;10.66;90.95
85023;BME280;75348;43.126;-2.538;2024-02-14T02:40:28;100071.69;;;10.49;92.03
85023;BME280;75348;43.126;-2.538;2024-02-14T02:42:55;100062.44;;;10.62;92.53
85023;BME280;75348;43.126;-2.538;2024-02-14T02:45:22;100077.84;;;10.49;93.26
85023;BME280;75348;43.126;-2.538;2024-02-14T02:47:50;100071.34;;;10.61;92.74
85023;BME280;75348;43.126;-2.538;2024-02-14T02:50:20;100065.72;;;10.47;92.47
85023;BME280;75348;43.126;-2.538;2024-02-14T02:52:48;100059.56;;;10.20;91.58
85023;BME280;75348;43.126;-2.538;2024-02-14T02:55:15;100058.81;;;10.00;92.13
85023;BME280;75348;43.126;-2.538;2024-02-14T02:57:45;100060.75;;;9.89;94.39
85023;BME280;75348;43.126;-2.538;2024-02-14T03:00:13;100063.75;;;9.67;92.40
85023;BME280;75348;43.126;-2.538;2024-02-14T03:02:40;100065.53;;;9.67;95.22
85023;BME280;75348;43.126;-2.538;2024-02-14T03:05:13;100060.28;;;9.48;93.91
85023;BME280;75348;43.126;-2.538;2024-02-14T03:07:46;100063.78;;;9.48;95.65
85023;BME280;75348;43.126;-2.538;2024-02-14T03:10:15;100059.47;;;9.29;94.64
85023;BME280;75348;43.126;-2.538;2024-02-14T03:12:46;100051.94;;;9.43;94.48
85023;BME280;75348;43.126;-2.538;2024-02-14T03:15:14;100050.00;;;9.35;94.83
85023;BME280;75348;43.126;-2.538;2024-02-14T03:17:42;100057.22;;;9.52;95.23
85023;BME280;75348;43.126;-2.538;2024-02-14T03:20:12;100047.75;;;9.59;94.33
85023;BME280;75348;43.126;-2.538;2024-02-14T03:22:43;100060.53;;;9.64;94.81
85023;BME280;75348;43.126;-2.538;2024-02-14T03:25:19;100053.06;;;9.40;95.85
85023;BME280;75348;43.126;-2.538;2024-02-14T03:27:47;100061.00;;;9.50;95.17
85023;BME280;75348;43.126;-2.538;2024-02-14T03:30:19;100060.00;;;9.41;95.51
85023;BME280;75348;43.126;-2.538;2024-02-14T03:32:47;100056.94;;;9.46;95.46
85023;BME280;75348;43.126;-2.538;2024-02-14T03:35:14;100042.22;;;9.34;93.92
85023;BME280;75348;43.126;-2.538;2024-02-14T03:37:42;100055.44;;;9.25;94.60
85023;BME280;75348;43.126;-2.538;2024-02-14T03:40:10;100051.38;;;9.02;95.26
85023;BME280;75348;43.126;-2.538;2024-02-14T03:42:38;100050.97;;;9.16;95.34
85023;BME280;75348;43.126;-2.538;2024-02-14T03:45:09;100045.25;;;8.92;94.71
85023;BME280;75348;43.126;-2.538;2024-02-14T03:47:36;100056.00;;;9.09;96.03
85023;BME280;75348;43.126;-2.538;2024-02-14T03:50:08;100042.47;;;8.84;95.08
85023;BME280;75348;43.126;-2.538;2024-02-14T03:52:35;100048.47;;;9.05;96.19
85023;BME280;75348;43.126;-2.538;2024-02-14T03:55:03;100061.13;;;9.01;95.74
85023;BME280;75348;43.126;-2.538;2024-02-14T03:57:30;100063.38;;;9.34;96.92
85023;BME280;75348;43.126;-2.538;2024-02-14T03:59:59;100048.19;;;9.45;94.87
85023;BME280;75348;43.126;-2.538;2024-02-14T04:02:30;100064.34;;;9.24;95.85
85023;BME280;75348;43.126;-2.538;2024-02-14T04:04:59;100043.47;;;9.21;93.26
85023;BME280;75348;43.126;-2.538;2024-02-14T04:07:26;100062.25;;;9.18;95.74
85023;BME280;75348;43.126;-2.538;2024-02-14T04:09:53;100024.50;;;9.44;96.42
85023;BME280;75348;43.126;-2.538;2024-02-14T04:12:21;100041.31;;;9.62;93.73
85023;BME280;75348;43.126;-2.538;2024-02-14T04:14:48;100056.94;;;9.55;95.30
85023;BME280;75348;43.126;-2.538;2024-02-14T04:17:15;100061.22;;;9.94;94.25
85023;BME280;75348;43.126;-2.538;2024-02-14T04:19:42;100079.03;;;9.64;93.75
85023;BME280;75348;43.126;-2.538;2024-02-14T04:22:09;100074.69;;;9.91;94.54
85023;BME280;75348;43.126;-2.538;2024-02-14T04:24:36;100084.19;;;9.65;93.60
85023;BME280;75348;43.126;-2.538;2024-02-14T04:27:03;100094.53;;;9.49;94.21
85023;BME280;75348;43.126;-2.538;2024-02-14T04:29:32;100078.38;;;9.52;94.42
85023;BME280;75348;43.126;-2.538;2024-02-14T04:32:01;100099.41;;;9.54;94.87
85023;BME280;75348;43.126;-2.538;2024-02-14T04:34:29;100093.84;;;9.29;94.69
85023;BME280;75348;43.126;-2.538;2024-02-14T04:36:57;100099.00;;;9.49;94.83
85023;BME280;75348;43.126;-2.538;2024-02-14T04:39:24;100096.06;;;9.61;95.40
85023;BME280;75348;43.126;-2.538;2024-02-14T04:41:51;100100.78;;;9.86;96.39
85023;BME280;75348;43.126;-2.538;2024-02-14T04:44:31;100098.38;;;10.11;94.09
85023;BME280;75348;43.126;-2.538;2024-02-14T04:46:58;100105.34;;;9.84;93.54
85023;BME280;75348;43.126;-2.538;2024-02-14T04:49:26;100101.44;;;9.88;94.55
85023;BME280;75348;43.126;-2.538;2024-02-14T04:51:56;100110.13;;;9.52;94.43
85023;BME280;75348;43.126;-2.538;2024-02-14T04:54:23;100103.44;;;9.95;95.21
85023;BME280;75348;43.126;-2.538;2024-02-14T04:56:51;100095.78;;;9.74;95.44
85023;BME280;75348;43.126;-2.538;2024-02-14T04:59:23;100101.44;;;10.07;94.56
85023;BME280;75348;43.126;-2.538;2024-02-14T05:01:50;100110.38;;;9.68;93.37
85023;BME280;75348;43.126;-2.538;2024-02-14T05:04:20;100109.81;;;9.74;94.88
85023;BME280;75348;43.126;-2.538;2024-02-14T05:06:48;100104.53;;;9.74;94.35
85023;BME280;75348;43.126;-2.538;2024-02-14T05:09:16;100114.84;;;9.58;94.67
85023;BME280;75348;43.126;-2.538;2024-02-14T05:11:43;100103.31;;;9.69;94.73
85023;BME280;75348;43.126;-2.538;2024-02-14T05:14:10;100127.69;;;9.53;95.13
85023;BME280;75348;43.126;-2.538;2024-02-14T05:16:37;100123.75;;;9.57;95.13
85023;BME280;75348;43.126;-2.538;2024-02-14T05:19:04;100125.16;;;9.52;95.81
85023;BME280;75348;43.126;-2.538;2024-02-14T05:21:32;100130.19;;;9.36;95.43
85023;BME280;75348;43.126;-2.538;2024-02-14T05:23:59;100106.38;;;9.27;94.95
85023;BME280;75348;43.126;-2.538;2024-02-14T05:26:26;100118.88;;;9.06;95.44
85023;BME280;75348;43.126;-2.538;2024-02-14T05:28:53;100115.84;;;9.20;96.75
85023;BME280;75348;43.126;-2.538;2024-02-14T05:31:20;100129.00;;;8.82;95.84
85023;BME280;75348;43.126;-2.538;2024-02-14T05:33:47;100110.97;;;9.06;96.22
85023;BME280;75348;43.126;-2.538;2024-02-14T05:36:14;100123.75;;;9.01;96.23
85023;BME280;75348;43.126;-2.538;2024-02-14T05:38:41;100121.28;;;9.28;95.92
85023;BME280;75348;43.126;-2.538;2024-02-14T05:41:08;100122.66;;;9.69;95.75
85023;BME280;75348;43.126;-2.538;2024-02-14T05:43:35;100114.88;;;9.39;94.47
85023;BME280;75348;43.126;-2.538;2024-02-14T05:46:02;100120.56;;;9.35;93.03
85023;BME280;75348;43.126;-2.538;2024-02-14T05:48:29;100120.16;;;9.39;95.90
85023;BME280;75348;43.126;-2.538;2024-02-14T05:50:57;100131.28;;;9.52;95.55
85023;BME280;75348;43.126;-2.538;2024-02-14T05:53:24;100128.75;;;9.88;94.97
85023;BME280;75348;43.126;-2.538;2024-02-14T05:55:51;100122.78;;;9.77;93.59
85023;BME280;75348;43.126;-2.538;2024-02-14T05:58:18;100115.38;;;9.90;94.90
85023;BME280;75348;43.126;-2.538;2024-02-14T06:00:45;100113.44;;;9.82;93.87
85023;BME280;75348;43.126;-2.538;2024-02-14T06:03:13;100117.34;;;9.88;95.46
85023;BME280;75348;43.126;-2.538;2024-02-14T06:05:40;100115.81;;;10.40;95.10
85023;BME280;75348;43.126;-2.538;2024-02-14T06:08:07;100114.72;;;10.33;91.93
85023;BME280;75348;43.126;-2.538;2024-02-14T06:10:34;100121.47;;;10.19;94.64
85023;BME280;75348;43.126;-2.538;2024-02-14T06:13:02;100119.72;;;10.46;94.30
85023;BME280;75348;43.126;-2.538;2024-02-14T06:15:29;100126.50;;;10.48;93.79
85023;BME280;75348;43.126;-2.538;2024-02-14T06:17:56;100124.31;;;10.97;92.06
85023;BME280;75348;43.126;-2.538;2024-02-14T06:20:24;100128.06;;;10.77;92.01
85023;BME280;75348;43.126;-2.538;2024-02-14T06:22:51;100129.16;;;11.02;91.36
85023;BME280;75348;43.126;-2.538;2024-02-14T06:25:30;100136.06;;;10.68;91.91
85023;BME280;75348;43.126;-2.538;2024-02-14T06:27:57;100128.25;;;10.30;91.98
85023;BME280;75348;43.126;-2.538;2024-02-14T06:30:24;100134.00;;;10.17;93.14
85023;BME280;75348;43.126;-2.538;2024-02-14T06:32:56;100142.41;;;10.03;93.90
85023;BME280;75348;43.126;-2.538;2024-02-14T06:35:29;100140.41;;;10.23;94.67
85023;BME280;75348;43.126;-2.538;2024-02-14T06:37:57;100152.13;;;10.21;93.81
85023;BME280;75348;43.126;-2.538;2024-02-14T06:40:30;100148.25;;;10.06;92.49
85023;BME280;75348;43.126;-2.538;2024-02-14T06:42:57;100139.06;;;10.01;94.79
85023;BME280;75348;43.126;-2.538;2024-02-14T06:45:27;100148.16;;;9.70;93.12
85023;BME280;75348;43.126;-2.538;2024-02-14T06:47:54;100153.13;;;9.73;94.97
85023;BME280;75348;43.126;-2.538;2024-02-14T06:50:22;100150.75;;;9.79;94.29
85023;BME280;75348;43.126;-2.538;2024-02-14T06:52:52;100158.47;;;9.35;94.96
85023;BME280;75348;43.126;-2.538;2024-02-14T06:55:19;100163.16;;;9.32;95.36
85023;BME280;75348;43.126;-2.538;2024-02-14T06:57:46;100155.22;;;9.23;95.32
85023;BME280;75348;43.126;-2.538;2024-02-14T07:00:13;100171.91;;;9.04;95.28
85023;BME280;75348;43.126;-2.538;2024-02-14T07:02:41;100149.78;;;9.15;94.79
85023;BME280;75348;43.126;-2.538;2024-02-14T07:05:10;100154.75;;;8.99;96.28
85023;BME280;75348;43.126;-2.538;2024-02-14T07:07:40;100151.06;;;9.20;96.51
85023;BME280;75348;43.126;-2.538;2024-02-14T07:10:08;100163.28;;;9.12;96.16
85023;BME280;75348;43.126;-2.538;2024-02-14T07:12:35;100161.59;;;9.11;96.78
85023;BME280;75348;43.126;-2.538;2024-02-14T07:15:04;100164.78;;;9.05;96.55
85023;BME280;75348;43.126;-2.538;2024-02-14T07:17:31;100155.53;;;9.29;96.02
85023;BME280;75348;43.126;-2.538;2024-02-14T07:19:58;100161.28;;;8.95;95.70
85023;BME280;75348;43.126;-2.538;2024-02-14T07:22:25;100165.47;;;9.07;97.41
85023;BME280;75348;43.126;-2.538;2024-02-14T07:24:53;100152.41;;;9.15;95.81
85023;BME280;75348;43.126;-2.538;2024-02-14T07:27:20;100153.63;;;8.92;95.41
85023;BME280;75348;43.126;-2.538;2024-02-14T07:29:48;100167.44;;;9.05;96.44
85023;BME280;75348;43.126;-2.538;2024-02-14T07:32:15;100165.47;;;9.07;95.64
85023;BME280;75348;43.126;-2.538;2024-02-14T07:34:43;100162.97;;;9.05;95.77
85023;BME280;75348;43.126;-2.538;2024-02-14T07:37:10;100159.00;;;9.48;95.29
85023;BME280;75348;43.126;-2.538;2024-02-14T07:39:37;100159.41;;;9.44;94.40
85023;BME280;75348;43.126;-2.538;2024-02-14T07:42:05;100164.16;;;9.50;94.66
85023;BME280;75348;43.126;-2.538;2024-02-14T07:44:32;100162.47;;;9.77;94.71
85023;BME280;75348;43.126;-2.538;2024-02-14T07:46:59;100153.00;;;9.84;93.37
85023;BME280;75348;43.126;-2.538;2024-02-14T07:49:30;100181.38;;;10.29;91.49
85023;BME280;75348;43.126;-2.538;2024-02-14T07:51:57;100159.94;;;10.22;90.85
85023;BME280;75348;43.126;-2.538;2024-02-14T07:54:24;100165.91;;;10.97;90.28
85023;BME280;75348;43.126;-2.538;2024-02-14T07:56:51;100167.81;;;11.65;86.60
85023;BME280;75348;43.126;-2.538;2024-02-14T07:59:18;100160.81;;;12.16;83.78
85023;BME280;75348;43.126;-2.538;2024-02-14T08:01:47;100167.88;;;12.33;81.08
85023;BME280;75348;43.126;-2.538;2024-02-14T08:04:14;100161.69;;;12.50;82.33
85023;BME280;75348;43.126;-2.538;2024-02-14T08:06:45;100155.53;;;12.49;81.90
85023;BME280;75348;43.126;-2.538;2024-02-14T08:09:13;100151.34;;;13.13;78.90
85023;BME280;75348;43.126;-2.538;2024-02-14T08:11:40;100143.84;;;14.83;72.23
85023;BME280;75348;43.126;-2.538;2024-02-14T08:14:08;100138.69;;;14.73;72.92
85023;BME280;75348;43.126;-2.538;2024-02-14T08:16:35;100131.28;;;15.74;70.69
85023;BME280;75348;43.126;-2.538;2024-02-14T08:19:02;100118.38;;;16.22;68.00
85023;BME280;75348;43.126;-2.538;2024-02-14T08:21:30;100125.84;;;16.98;66.53
85023;BME280;75348;43.126;-2.538;2024-02-14T08:23:58;100118.06;;;17.52;64.83
85023;BME280;75348;43.126;-2.538;2024-02-14T08:26:27;100110.06;;;18.75;61.03
85023;BME280;75348;43.126;-2.538;2024-02-14T08:28:55;100107.81;;;19.32;58.96
85023;BME280;75348;43.126;-2.538;2024-02-14T08:31:23;100097.75;;;19.53;58.61
85023;BME280;75348;43.126;-2.538;2024-02-14T08:33:50;100103.63;;;20.02;57.02
85023;BME280;75348;43.126;-2.538;2024-02-14T08:36:17;100108.31;;;18.62;63.37
85023;BME280;75348;43.126;-2.538;2024-02-14T08:38:46;100096.28;;;18.91;61.01
85023;BME280;75348;43.126;-2.538;2024-02-14T08:41:14;100124.13;;;18.84;61.20
85023;BME280;75348;43.126;-2.538;2024-02-14T08:43:41;100115.03;;;18.51;62.54
85023;BME280;75348;43.126;-2.538;2024-02-14T08:46:13;100112.75;;;20.13;57.57
85023;BME280;75348;43.126;-2.538;2024-02-14T08:48:42;100107.06;;;19.63;58.23
85023;BME280;75348;43.126;-2.538;2024-02-14T08:51:15;100109.09;;;19.42;59.75
85023;BME280;75348;43.126;-2.538;2024-02-14T08:53:44;100117.69;;;19.12;60.91
85023;BME280;75348;43.126;-2.538;2024-02-14T08:56:12;100109.13;;;19.49;59.30
85023;BME280;75348;43.126;-2.538;2024-02-14T08:58:40;100113.75;;;19.15;60.29
85023;BME280;75348;43.126;-2.538;2024-02-14T09:01:07;100105.44;;;19.69;58.36
85023;BME280;75348;43.126;-2.538;2024-02-14T09:03:44;100099.00;;;19.63;59.04
85023;BME280;75348;43.126;-2.538;2024-02-14T09:06:17;100104.38;;;19.63;58.80
85023;BME280;75348;43.126;-2.538;2024-02-14T09:08:47;100105.16;;;19.38;58.91
85023;BME280;75348;43.126;-2.538;2024-02-14T09:11:15;100101.97;;;20.07;57.49
85023;BME280;75348;43.126;-2.538;2024-02-14T09:13:42;100102.28;;;19.46;59.52
85023;BME280;75348;43.126;-2.538;2024-02-14T09:16:09;100096.28;;;19.51;59.21
85023;BME280;75348;43.126;-2.538;2024-02-14T09:18:38;100090.91;;;19.44;58.91
85023;BME280;75348;43.126;-2.538;2024-02-14T09:21:05;100112.75;;;19.94;57.98
85023;BME280;75348;43.126;-2.538;2024-02-14T09:23:33;100106.88;;;20.61;55.95
85023;BME280;75348;43.126;-2.538;2024-02-14T09:26:01;100107.47;;;19.61;58.77
85023;BME280;75348;43.126;-2.538;2024-02-14T09:28:29;100096.59;;;19.88;57.84
85023;BME280;75348;43.126;-2.538;2024-02-14T09:30:56;100115.16;;;19.76;58.15
85023;BME280;75348;43.126;-2.538;2024-02-14T09:33:23;100084.91;;;19.42;59.12
85023;BME280;75348;43.126;-2.538;2024-02-14T09:35:50;100096.19;;;20.23;56.49
85023;BME280;75348;43.126;-2.538;2024-02-14T09:38:19;100076.28;;;19.79;57.64
85023;BME280;75348;43.126;-2.538;2024-02-14T09:40:46;100070.09;;;20.10;57.74
85023;BME280;75348;43.126;-2.538;2024-02-14T09:43:31;100079.63;;;20.19;56.55
85023;BME280;75348;43.126;-2.538;2024-02-14T09:46:02;100071.31;;;20.02;57.78
85023;BME280;75348;43.126;-2.538;2024-02-14T09:48:30;100081.22;;;19.69;58.44
85023;BME280;75348;43.126;-2.538;2024-02-14T09:50:58;100068.78;;;19.55;59.36
85023;BME280;75348;43.126;-2.538;2024-02-14T09:53:26;100072.09;;;19.63;59.51
85023;BME280;75348;43.126;-2.538;2024-02-14T09:55:55;100084.75;;;19.69;58.31
85023;BME280;75348;43.126;-2.538;2024-02-14T09:58:23;100055.97;;;19.57;59.30
85023;BME280;75348;43.126;-2.538;2024-02-14T10:01:00;100057.59;;;20.48;57.05
85023;BME280;75348;43.126;-2.538;2024-02-14T10:03:27;100049.72;;;20.53;56.32
85023;BME280;75348;43.126;-2.538;2024-02-14T10:05:54;100057.59;;;20.54;55.12
85023;BME280;75348;43.126;-2.538;2024-02-14T10:08:22;100073.41;;;20.00;57.11
85023;BME280;75348;43.126;-2.538;2024-02-14T10:10:49;100046.81;;;20.48;56.97
85023;BME280;75348;43.126;-2.538;2024-02-14T10:13:19;100073.81;;;20.09;57.91
85023;BME280;75348;43.126;-2.538;2024-02-14T10:15:47;100067.22;;;19.86;58.23
85023;BME280;75348;43.126;-2.538;2024-02-14T10:18:14;100065.94;;;20.21;57.76
85023;BME280;75348;43.126;-2.538;2024-02-14T10:20:55;100056.03;;;19.89;59.00
85023;BME280;75348;43.126;-2.538;2024-02-14T10:23:23;100055.16;;;20.02;58.41
85023;BME280;75348;43.126;-2.538;2024-02-14T10:25:53;100065.44;;;20.69;56.79
85023;BME280;75348;43.126;-2.538;2024-02-14T10:28:23;100057.56;;;20.74;57.09
85023;BME280;75348;43.126;-2.538;2024-02-14T10:31:01;100062.41;;;20.40;57.89
85023;BME280;75348;43.126;-2.538;2024-02-14T10:33:28;100057.38;;;21.87;53.27
85023;BME280;75348;43.126;-2.538;2024-02-14T10:35:59;100050.69;;;21.21;54.52
85023;BME280;75348;43.126;-2.538;2024-02-14T10:38:32;100048.09;;;21.02;56.07
85023;BME280;75348;43.126;-2.538;2024-02-14T10:41:01;100043.66;;;21.20;54.68
85023;BME280;75348;43.126;-2.538;2024-02-14T10:43:28;100052.31;;;21.29;55.00
85023;BME280;75348;43.126;-2.538;2024-02-14T10:45:56;100054.88;;;21.85;53.16
85023;BME280;75348;43.126;-2.538;2024-02-14T10:48:25;100056.06;;;21.65;55.07
85023;BME280;75348;43.126;-2.538;2024-02-14T10:50:53;100046.03;;;21.72;53.95
85023;BME280;75348;43.126;-2.538;2024-02-14T10:53:21;100053.41;;;22.55;51.61
85023;BME280;75348;43.126;-2.538;2024-02-14T10:55:49;100050.63;;;21.95;54.18
85023;BME280;75348;43.126;-2.538;2024-02-14T10:58:18;100044.25;;;21.66;54.36
85023;BME280;75348;43.126;-2.538;2024-02-14T11:00:46;100052.06;;;21.98;53.58
85023;BME280;75348;43.126;-2.538;2024-02-14T11:03:14;100061.59;;;22.00;53.20
85023;BME280;75348;43.126;-2.538;2024-02-14T11:05:47;100044.19;;;21.96;54.06
85023;BME280;75348;43.126;-2.538;2024-02-14T11:08:18;100046.34;;;21.88;54.56
85023;BME280;75348;43.126;-2.538;2024-02-14T11:10:53;100048.09;;;21.76;54.36
85023;BME280;75348;43.126;-2.538;2024-02-14T11:13:25;100046.72;;;21.91;53.40
85023;BME280;75348;43.126;-2.538;2024-02-14T11:15:54;100044.13;;;21.79;54.25
85023;BME280;75348;43.126;-2.538;2024-02-14T11:18:28;100045.09;;;22.08;53.35
85023;BME280;75348;43.126;-2.538;2024-02-14T11:21:04;100035.44;;;22.01;53.50
85023;BME280;75348;43.126;-2.538;2024-02-14T11:23:31;100033.59;;;21.95;53.57
85023;BME280;75348;43.126;-2.538;2024-02-14T11:26:05;100029.56;;;21.80;53.71
85023;BME280;75348;43.126;-2.538;2024-02-14T11:28:37;100038.06;;;22.07;54.42
85023;BME280;75348;43.126;-2.538;2024-02-14T11:31:07;100030.38;;;21.56;55.19
85023;BME280;75348;43.126;-2.538;2024-02-14T11:33:34;100027.72;;;21.49;54.71
85023;BME280;75348;43.126;-2.538;2024-02-14T11:36:08;100037.28;;;21.52;54.19
85023;BME280;75348;43.126;-2.538;2024-02-14T11:38:40;100037.06;;;21.78;55.01
85023;BME280;75348;43.126;-2.538;2024-02-14T11:41:08;100019.50;;;22.35;53.94
85023;BME280;75348;43.126;-2.538;2024-02-14T11:43:36;100033.31;;;22.27;52.66
85023;BME280;75348;43.126;-2.538;2024-02-14T11:46:06;100017.00;;;22.16;53.56
85023;BME280;75348;43.126;-2.538;2024-02-14T11:48:33;100014.03;;;22.24;52.48
85023;BME280;75348;43.126;-2.538;2024-02-14T11:51:01;100006.31;;;22.27;52.30
85023;BME280;75348;43.126;-2.538;2024-02-14T11:53:29;100003.91;;;21.71;53.98
85023;BME280;75348;43.126;-2.538;2024-02-14T11:55:56;100009.41;;;22.06;53.26
85023;BME280;75348;43.126;-2.538;2024-02-14T11:58:23;99982.97;;;21.90;54.38
85023;BME280;75348;43.126;-2.538;2024-02-14T12:00:50;99984.94;;;21.53;55.32
85023;BME280;75348;43.126;-2.538;2024-02-14T12:03:22;99998.97;;;21.31;55.21
85023;BME280;75348;43.126;-2.538;2024-02-14T12:05:51;99983.09;;;21.16;54.13
85023;BME280;75348;43.126;-2.538;2024-02-14T12:08:19;99987.84;;;20.90;54.58
85023;BME280;75348;43.126;-2.538;2024-02-14T12:10:46;99989.72;;;21.20;53.61
85023;BME280;75348;43.126;-2.538;2024-02-14T12:13:20;99996.75;;;21.21;53.83
85023;BME280;75348;43.126;-2.538;2024-02-14T12:15:49;99971.53;;;21.71;52.30
85023;BME280;75348;43.126;-2.538;2024-02-14T12:18:19;99992.88;;;21.48;53.74
85023;BME280;75348;43.126;-2.538;2024-02-14T12:20:47;99986.78;;;21.59;53.42
85023;BME280;75348;43.126;-2.538;2024-02-14T12:23:22;99975.88;;;22.14;52.49
85023;BME280;75348;43.126;-2.538;2024-02-14T12:25:50;99987.69;;;22.19;51.52
85023;BME280;75348;43.126;-2.538;2024-02-14T12:28:18;99967.63;;;21.85;52.02
85023;BME280;75348;43.126;-2.538;2024-02-14T12:30:47;99978.56;;;21.72;51.88
85023;BME280;75348;43.126;-2.538;2024-02-14T12:33:17;99952.50;;;21.59;51.96
85023;BME280;75348;43.126;-2.538;2024-02-14T12:35:46;99957.69;;;21.85;52.15
85023;BME280;75348;43.126;-2.538;2024-02-14T12:38:15;99947.06;;;21.35;51.27
85023;BME280;75348;43.126;-2.538;2024-02-14T12:40:42;99951.31;;;21.55;49.61
85023;BME280;75348;43.126;-2.538;2024-02-14T12:43:15;99954.78;;;21.32;50.03
85023;BME280;75348;43.126;-2.538;2024-02-14T12:45:45;99948.84;;;21.23;49.95
85023;BME280;75348;43.126;-2.538;2024-02-14T12:48:13;99951.81;;;21.15;50.17
85023;BME280;75348;43.126;-2.538;2024-02-14T12:50:48;99942.69;;;21.10;50.30